aviador You're here:

KEUG Decoded Metar

EUGENE in OR, USA
Report Time2017-07-22 17:54:00
UTC Time2017-07-22 18:50:36
Flight Rules vfr VFR
Wind020° at 09 kt
W.Decomp.*RWY 34: 8.2 kt HW 3.7 kt RCW
W.Rank020° ranks 4
Current wind is above 020° avg. (7.7)
Visibility9999 m
Phenomena:N/A
Clouds:N/A
Expected CloudBase > 4,800 ft AGL from Temp-Dew spread
CeilingNone
Temp24°C (ISA +10)
Dew Point12°C (47% RH)
AAT21.4°C
QNH1021 hPa
Density Alt1,427 ft
Elevation374 ft
Report Wrong Elevation
Raw Report
KEUG 221754Z 02009KT 10SM CLR 24/12 A3015 RMK AO2 SLP208 T02440122
10244 20111 58012=

Extra information for KEUG:More info

Metar Taf Metar & Taf Last 4 Metars F.Rules Stats Wind Profile Meteogram Temp Stats Airport Information Weather charts Add Link Nearby VenuesMetar ALERT Operation Metar Decoded Social comments

AIRNAV info for KEUG